Time;durP1;ratioP1;P1;durP2;ratioP2;P2;SDS_P1;SDS_P2;PMS_P1;PMS_P2;Temp;Humidity;BMP_temperature;BMP_pressure;BME280_temperature;BME280_humidity;BME280_pressure;Samples;Min_cycle;Max_cycle;Signal;HPM_P1;HPM_P2
2022/04/04 00:00:22;;;;;;;8.13;3.67;;;;;;;2.50;42.80;100792.94;5413795;32;44384;-96
2022/04/04 00:03:26;;;;;;;7.82;3.50;;;;;;;2.34;43.77;100806.78;5394067;32;32456;-96
2022/04/04 00:06:31;;;;;;;7.33;3.47;;;;;;;2.23;43.21;100783.41;5388299;32;33765;-95
2022/04/04 00:09:34;;;;;;;7.70;3.30;;;;;;;2.52;43.21;100808.53;5397693;32;34425;-96
2022/04/04 00:12:39;;;;;;;9.20;4.00;;;;;;;2.22;44.37;100798.97;5400746;32;34319;-96
2022/04/04 00:15:42;;;;;;;7.43;3.60;;;;;;;2.54;43.63;100811.97;5410006;32;35110;-96
2022/04/04 00:18:47;;;;;;;8.53;3.97;;;;;;;2.68;42.94;100798.12;5367861;32;35086;-96
2022/04/04 00:21:49;;;;;;;9.33;3.90;;;;;;;2.66;42.87;100786.91;5407362;32;34702;-95
2022/04/04 00:24:51;;;;;;;7.30;3.73;;;;;;;2.69;42.99;100799.84;5388570;32;45129;-95
2022/04/04 00:27:54;;;;;;;7.93;3.80;;;;;;;2.84;42.31;100795.56;5403464;32;33809;-96
2022/04/04 00:30:59;;;;;;;9.87;4.27;;;;;;;3.13;41.67;100816.25;5408600;32;33844;-95
2022/04/04 00:34:02;;;;;;;9.80;4.07;;;;;;;2.79;42.77;100818.03;5392745;32;34085;-94
2022/04/04 00:37:05;;;;;;;7.10;3.77;;;;;;;2.96;42.53;100814.56;5390994;32;35151;-95
2022/04/04 00:40:08;;;;;;;9.10;4.40;;;;;;;2.55;43.06;100809.38;5381396;32;34182;-96
2022/04/04 00:43:11;;;;;;;9.63;3.87;;;;;;;2.69;43.16;100815.44;5402607;32;34600;-96
2022/04/04 00:46:14;;;;;;;7.50;4.00;;;;;;;2.16;44.20;100807.63;5383032;32;34143;-95
2022/04/04 00:49:17;;;;;;;8.33;4.00;;;;;;;2.26;44.56;100818.88;5403280;32;34401;-95
2022/04/04 00:52:20;;;;;;;8.03;3.90;;;;;;;2.09;45.06;100811.91;5416035;32;35670;-95
2022/04/04 00:55:24;;;;;;;8.67;4.47;;;;;;;2.28;44.67;100799.00;5387869;32;44905;-94
2022/04/04 00:58:30;;;;;;;9.20;3.93;;;;;;;2.23;45.05;100804.16;5396702;32;34771;-96
2022/04/04 01:01:34;;;;;;;10.13;4.20;;;;;;;2.13;45.35;100799.84;5394521;32;34830;-94
2022/04/04 01:04:41;;;;;;;9.30;3.93;;;;;;;2.32;44.91;100808.50;5413655;32;35006;-94
2022/04/04 01:07:44;;;;;;;8.60;4.03;;;;;;;2.15;45.23;100803.28;5385578;32;34728;-96
2022/04/04 01:10:46;;;;;;;8.83;4.20;;;;;;;2.68;43.17;100785.16;5398522;32;33437;-96
2022/04/04 01:13:50;;;;;;;8.97;4.13;;;;;;;2.89;43.18;100792.06;5400571;32;34626;-94
2022/04/04 01:16:54;;;;;;;9.63;4.20;;;;;;;2.65;43.30;100786.91;5402299;32;44651;-95
2022/04/04 01:19:57;;;;;;;7.67;3.73;;;;;;;2.61;43.40;100790.34;5403056;32;35214;-96
2022/04/04 01:22:59;;;;;;;9.30;4.00;;;;;;;3.07;41.68;100814.53;5381294;32;34140;-96
2022/04/04 01:26:02;;;;;;;8.03;3.97;;;;;;;2.73;42.81;100816.31;5391457;32;33792;-96
2022/04/04 01:29:05;;;;;;;8.77;4.30;;;;;;;3.01;41.61;100782.53;5398334;32;34458;-95
2022/04/04 01:32:08;;;;;;;7.43;3.90;;;;;;;2.95;42.02;100807.63;5375831;32;35180;-95
2022/04/04 01:35:13;;;;;;;8.13;3.63;;;;;;;2.61;42.15;100786.03;5403340;32;35398;-95
2022/04/04 01:38:16;;;;;;;7.57;3.63;;;;;;;3.38;41.12;100804.94;5371423;32;33595;-96
2022/04/04 01:41:18;;;;;;;8.73;4.13;;;;;;;3.25;40.91;100811.91;5388158;32;34676;-95
2022/04/04 01:44:21;;;;;;;6.03;3.03;;;;;;;2.95;41.26;100793.78;5395255;32;34249;-95
2022/04/04 01:47:23;;;;;;;8.07;3.77;;;;;;;3.49;40.05;100795.38;5378521;32;44449;-95
2022/04/04 01:50:26;;;;;;;6.80;3.50;;;;;;;2.38;42.13;100790.34;5396087;32;34480;-95
2022/04/04 01:53:29;;;;;;;8.23;3.83;;;;;;;2.86;41.49;100817.16;5381934;32;33563;-95
2022/04/04 01:56:33;;;;;;;7.60;3.70;;;;;;;2.73;42.01;100821.50;5373752;32;32256;-94
2022/04/04 01:59:36;;;;;;;7.32;3.78;;;;;;;2.60;42.50;100822.38;5376021;32;34948;-95
2022/04/04 02:02:39;;;;;;;7.90;4.10;;;;;;;2.48;41.95;100807.66;5380909;32;32703;-96
2022/04/04 02:05:41;;;;;;;8.60;3.87;;;;;;;2.14;43.26;100799.84;5391552;32;34128;-95
2022/04/04 02:08:45;;;;;;;9.10;4.40;;;;;;;2.12;43.80;100809.31;5386508;32;34065;-96
2022/04/04 02:11:50;;;;;;;7.87;3.93;;;;;;;2.58;42.69;100822.38;5373787;32;33930;-95
2022/04/04 02:14:53;;;;;;;10.73;4.40;;;;;;;2.40;42.91;100822.34;5374578;32;44480;-95
2022/04/04 02:17:56;;;;;;;9.30;3.73;;;;;;;1.90;44.29;100828.28;5370466;32;34933;-95
2022/04/04 02:20:59;;;;;;;9.55;4.30;;;;;;;2.20;43.34;100818.88;5394065;32;35108;-95
2022/04/04 02:24:02;;;;;;;8.03;4.00;;;;;;;2.14;43.53;100809.34;5379680;32;34821;-95
2022/04/04 02:27:05;;;;;;;8.55;3.75;;;;;;;2.89;41.91;100814.56;5388085;32;35374;-95
2022/04/04 02:30:09;;;;;;;12.43;3.83;;;;;;;1.89;43.31;100787.69;5374616;32;35080;-96
2022/04/04 02:33:12;;;;;;;12.07;3.90;;;;;;;2.33;43.14;100815.44;5372825;32;34487;-95
2022/04/04 02:36:15;;;;;;;9.50;4.50;;;;;;;1.92;44.40;100817.91;5374580;32;33956;-96
2022/04/04 02:39:17;;;;;;;7.53;4.00;;;;;;;2.12;43.80;100817.09;5377799;32;34038;-96
2022/04/04 02:42:20;;;;;;;10.47;4.10;;;;;;;1.75;44.44;100810.97;5365877;32;34618;-95
2022/04/04 02:45:22;;;;;;;8.70;4.13;;;;;;;2.34;43.72;100823.22;5376995;32;45039;-96
2022/04/04 02:48:25;;;;;;;11.23;4.47;;;;;;;1.75;45.06;100826.53;5368382;32;34791;-96
2022/04/04 02:51:28;;;;;;;9.93;4.00;;;;;;;1.95;44.20;100825.72;5387708;32;34761;-94
2022/04/04 02:54:31;;;;;;;8.32;4.05;;;;;;;2.02;43.95;100805.00;5413875;32;33613;-96
2022/04/04 02:57:34;;;;;;;7.73;3.60;;;;;;;1.68;44.42;100832.53;5367719;32;34893;-96
2022/04/04 03:00:37;;;;;;;11.97;4.00;;;;;;;2.29;43.58;100827.50;5398648;32;34442;-96
2022/04/04 03:03:40;;;;;;;11.63;4.27;;;;;;;1.58;44.83;100835.94;5370988;32;35870;-95
2022/04/04 03:06:43;;;;;;;11.12;4.18;;;;;;;1.77;44.31;100839.47;5380785;32;35163;-95
2022/04/04 03:09:46;;;;;;;10.43;4.43;;;;;;;1.77;44.24;100813.56;5372567;32;35153;-94
2022/04/04 03:12:50;;;;;;;9.07;3.83;;;;;;;2.26;43.42;100824.06;5387489;32;34154;-95
2022/04/04 03:15:54;;;;;;;9.83;4.03;;;;;;;2.11;43.76;100825.75;5380555;32;44952;-96
2022/04/04 03:18:58;;;;;;;11.37;4.60;;;;;;;2.14;43.57;100820.59;5366737;32;33503;-96
2022/04/04 03:22:02;;;;;;;10.90;4.30;;;;;;;2.61;43.17;100834.47;5374851;32;34798;-96
2022/04/04 03:25:05;;;;;;;;;;;;;;;3.21;41.84;100824.91;5393007;32;35255;-95
2022/04/04 03:28:08;;;;;;;12.97;4.97;;;;;;;3.66;40.75;100828.22;5384763;32;34623;-95
2022/04/04 03:31:13;;;;;;;9.47;4.00;;;;;;;3.15;41.13;100820.56;5402896;32;33718;-95
2022/04/04 03:34:16;;;;;;;10.30;4.20;;;;;;;2.90;41.05;100826.69;5387393;32;35007;-95
2022/04/04 03:37:19;;;;;;;8.93;3.70;;;;;;;1.89;42.84;100829.16;5395616;32;35367;-95
2022/04/04 03:40:24;;;;;;;9.27;4.13;;;;;;;2.06;42.49;100840.44;5359658;32;43531;-95
2022/04/04 03:43:27;;;;;;;9.33;3.63;;;;;;;2.58;41.36;100819.78;5376026;32;33430;-96
2022/04/04 03:46:30;;;;;;;8.13;3.90;;;;;;;2.45;41.17;100818.03;5363926;32;33567;-95
2022/04/04 03:49:35;;;;;;;7.70;3.87;;;;;;;3.31;40.21;100838.75;5376572;32;33931;-95
2022/04/04 03:52:39;;;;;;;9.50;4.30;;;;;;;3.04;40.76;100850.06;5406512;32;34633;-95
2022/04/04 03:55:43;;;;;;;9.07;4.00;;;;;;;3.17;40.07;100839.63;5375743;32;33509;-95
2022/04/04 03:58:45;;;;;;;9.55;4.15;;;;;;;2.78;40.99;100840.53;5372802;32;34514;-95
2022/04/04 04:01:48;;;;;;;11.23;4.70;;;;;;;2.79;41.00;100844.00;5378959;32;35033;-94
2022/04/04 04:04:50;;;;;;;11.63;4.37;;;;;;;1.86;42.11;100835.16;5407705;32;34918;-95
2022/04/04 04:07:54;;;;;;;10.67;4.30;;;;;;;2.28;41.33;100856.91;5364294;32;434457;-94
2022/04/04 04:10:59;;;;;;;10.97;4.23;;;;;;;2.11;41.84;100862.03;5364940;32;34197;-96
2022/04/04 04:14:03;;;;;;;8.30;3.67;;;;;;;2.49;41.45;100861.28;5386930;32;34536;-95
2022/04/04 04:17:06;;;;;;;7.82;3.62;;;;;;;2.25;41.20;100846.53;5381635;32;34697;-96
2022/04/04 04:20:23;;;;;;;7.60;3.72;;;;;;;3.08;39.44;100860.41;5416409;32;34438;-94
2022/04/04 04:23:28;;;;;;;8.33;3.57;;;;;;;2.56;40.86;100867.34;5405653;32;45027;-95
2022/04/04 04:26:32;;;;;;;;;;;;;;;2.92;39.57;100858.72;5410823;32;36187;-96
2022/04/04 04:29:35;;;;;;;8.30;3.93;;;;;;;3.41;38.89;100856.88;5407397;32;34824;-96
2022/04/04 04:32:38;;;;;;;10.53;4.20;;;;;;;2.94;39.99;100849.19;5381498;32;33903;-96
2022/04/04 04:35:41;;;;;;;10.13;4.20;;;;;;;3.09;39.45;100856.97;5379532;32;34540;-95
2022/04/04 04:38:48;;;;;;;7.47;4.10;;;;;;;2.62;40.50;100864.75;5360158;32;34342;-94
2022/04/04 04:41:51;;;;;;;7.50;3.80;;;;;;;2.94;40.10;100862.16;5364275;32;33818;-95
2022/04/04 04:44:54;;;;;;;6.77;3.33;;;;;;;3.35;39.01;100863.84;5361353;32;34156;-95
2022/04/04 04:47:56;;;;;;;9.80;4.53;;;;;;;2.98;39.60;100854.37;5375333;32;35003;-94
2022/04/04 04:51:01;;;;;;;10.17;4.57;;;;;;;2.74;40.12;100840.53;5383230;32;34482;-94
2022/04/04 04:54:04;;;;;;;12.17;4.17;;;;;;;2.11;41.73;100871.56;5392467;32;36782;-94
2022/04/04 04:57:07;;;;;;;9.17;4.10;;;;;;;2.80;40.58;100869.97;5365035;32;34071;-94
2022/04/04 05:00:15;;;;;;;9.83;4.40;;;;;;;2.77;40.24;100872.56;5383665;32;34524;-94
2022/04/04 05:03:25;;;;;;;7.90;3.80;;;;;;;2.48;40.78;100869.94;5361923;32;35166;-94
2022/04/04 05:06:32;;;;;;;8.13;3.73;;;;;;;2.65;40.58;100875.16;5387986;32;46120;-94
2022/04/04 05:09:36;;;;;;;8.18;3.78;;;;;;;2.39;41.17;100878.56;5371986;32;34654;-95
2022/04/04 05:12:42;;;;;;;11.23;5.10;;;;;;;2.85;40.40;100867.37;5366445;32;36012;-95
2022/04/04 05:15:50;;;;;;;14.27;5.23;;;;;;;3.30;40.53;100842.22;5356573;32;35807;-96
2022/04/04 05:19:03;;;;;;;12.67;5.00;;;;;;;3.17;41.26;100865.62;5374217;32;44374;-96
2022/04/04 05:22:08;;;;;;;11.97;5.17;;;;;;;3.75;39.74;100875.88;5389741;32;34832;-96
2022/04/04 05:25:23;;;;;;;10.23;4.10;;;;;;;3.86;39.24;100877.56;5389229;32;34687;-95
2022/04/04 05:28:27;;;;;;;9.87;4.97;;;;;;;3.51;40.26;100886.34;5380270;32;43921;-94
2022/04/04 05:31:35;;;;;;;;;;;;;;;4.62;37.79;100879.75;5378408;32;33188;-94
2022/04/04 05:34:40;;;;;;;12.03;4.70;;;;;;;5.08;37.14;100877.63;5384960;32;33128;-93
2022/04/04 05:37:54;;;;;;;9.03;4.70;;;;;;;4.95;37.48;100885.56;5412290;32;34890;-94
2022/04/04 05:41:09;;;;;;;10.50;4.60;;;;;;;6.47;34.62;100870.84;5377219;32;34043;-95
2022/04/04 05:44:39;;;;;;;9.50;4.70;;;;;;;4.54;37.86;100894.56;5360099;32;44350;-95
2022/04/04 05:47:50;;;;;;;10.87;5.40;;;;;;;6.85;33.70;100890.31;5366518;32;34087;-93
2022/04/04 05:52:17;;;;;;;11.77;5.20;;;;;;;7.47;31.95;100877.91;5351900;32;34008;-96
2022/04/04 05:58:43;;;;;;;11.10;5.10;;;;;;;8.24;31.12;100887.69;5360870;32;34319;-64
2022/04/04 06:01:45;;;;;;;9.43;4.43;;;;;;;7.57;31.71;100891.66;5366221;32;35360;-64
2022/04/04 06:04:47;;;;;;;10.20;5.00;;;;;;;7.85;31.49;100878.91;5382892;32;33838;-61
2022/04/04 06:07:50;;;;;;;9.30;3.90;;;;;;;9.17;30.11;100887.31;5363021;32;35804;-64
2022/04/04 06:10:53;;;;;;;9.23;4.60;;;;;;;10.08;27.41;100881.31;5380628;32;45414;-64
2022/04/04 06:13:56;;;;;;;9.40;3.77;;;;;;;9.52;28.27;100886.38;5366357;32;34146;-62
2022/04/04 06:16:59;;;;;;;9.93;4.70;;;;;;;8.91;28.40;100893.19;5371105;32;33913;-66
2022/04/04 06:20:01;;;;;;;10.00;4.10;;;;;;;9.90;27.17;100892.34;5372072;32;35301;-68
2022/04/04 06:23:04;;;;;;;12.90;3.73;;;;;;;9.90;28.01;100892.34;5351786;32;34178;-65
2022/04/04 06:26:12;;;;;;;7.17;3.47;;;;;;;10.66;26.93;100894.50;5369412;32;34254;-64
2022/04/04 06:29:14;;;;;;;10.10;5.53;;;;;;;11.26;25.64;100890.75;5355451;32;34722;-62
2022/04/04 06:32:24;;;;;;;8.30;4.30;;;;;;;11.61;24.16;100892.19;5363350;32;45303;-64
2022/04/04 06:35:26;;;;;;;10.20;4.47;;;;;;;9.58;26.31;100901.97;5374560;32;35296;-66
2022/04/04 06:38:29;;;;;;;7.97;3.83;;;;;;;10.83;25.30;100898.31;5370057;32;33911;-63
2022/04/04 06:41:31;;;;;;;11.88;4.50;;;;;;;10.63;25.37;100895.47;5388191;32;35720;-65
2022/04/04 06:44:34;;;;;;;11.15;4.87;;;;;;;11.09;25.19;100897.47;5407538;32;34237;-64
2022/04/04 06:47:37;;;;;;;7.37;3.53;;;;;;;10.40;24.79;100903.19;5416953;32;35471;-67
2022/04/04 06:50:39;;;;;;;8.93;3.83;;;;;;;11.84;23.48;100894.03;5407072;32;34161;-67
2022/04/04 06:53:41;;;;;;;7.00;3.70;;;;;;;12.10;22.69;100895.69;5411310;32;34351;-64
2022/04/04 06:56:46;;;;;;;10.70;6.07;;;;;;;12.00;23.02;100900.47;5382779;32;34094;-67
2022/04/04 06:59:49;;;;;;;7.57;3.60;;;;;;;12.14;23.41;100900.81;5393792;32;34224;-71
2022/04/04 07:02:53;;;;;;;7.70;3.80;;;;;;;12.48;20.87;100896.88;5414318;32;32642;-70
2022/04/04 07:05:56;;;;;;;8.57;4.17;;;;;;;11.77;21.10;100906.53;5413579;32;34605;-63
2022/04/04 07:08:58;;;;;;;10.65;4.93;;;;;;;12.28;21.95;100902.91;5413776;32;34095;-67
2022/04/04 07:12:01;;;;;;;20.53;9.43;;;;;;;12.48;21.83;100903.00;5410260;32;35237;-66
2022/04/04 07:15:04;;;;;;;9.60;4.73;;;;;;;13.46;20.67;100898.19;5410065;32;35365;-67
2022/04/04 07:18:08;;;;;;;7.22;3.83;;;;;;;12.22;21.38;100907.56;5411220;32;34131;-69
2022/04/04 07:21:10;;;;;;;10.00;4.22;;;;;;;11.48;21.77;100902.28;5389749;32;33928;-69
2022/04/04 07:24:13;;;;;;;9.48;4.00;;;;;;;9.33;23.58;100914.84;5415357;32;33996;-63
2022/04/04 07:27:16;;;;;;;7.80;3.90;;;;;;;11.84;22.06;100899.28;5402414;32;36949;-64
2022/04/04 07:30:19;;;;;;;7.05;3.65;;;;;;;10.84;21.76;100909.69;5429470;32;34224;-66
2022/04/04 07:33:21;;;;;;;;;;;;;;;10.88;21.82;100900.78;5410223;32;33929;-69
2022/04/04 07:36:24;;;;;;;8.38;3.90;;;;;;;11.02;22.33;100905.63;5418081;32;34529;-70
2022/04/04 07:39:26;;;;;;;11.40;6.27;;;;;;;11.33;22.14;100906.31;5406398;32;34145;-70
2022/04/04 07:42:28;;;;;;;10.53;3.83;;;;;;;12.63;21.17;100900.72;5396823;32;35533;-69
2022/04/04 07:45:31;;;;;;;6.73;3.00;;;;;;;10.74;21.39;100909.09;5418101;32;35384;-65
2022/04/04 07:48:33;;;;;;;7.43;3.75;;;;;;;12.22;20.20;100899.66;5399164;32;34781;-62
2022/04/04 07:51:35;;;;;;;7.00;3.60;;;;;;;12.60;19.26;100895.53;5412320;32;34318;-63
2022/04/04 07:54:38;;;;;;;7.47;3.73;;;;;;;13.83;18.41;100887.72;5372829;32;34038;-67
2022/04/04 07:57:41;;;;;;;8.23;3.83;;;;;;;11.24;20.95;100903.97;5379658;32;34416;-64
2022/04/04 08:00:46;;;;;;;6.80;3.67;;;;;;;9.40;23.13;100912.94;5406969;32;35414;-63
2022/04/04 08:03:48;;;;;;;9.03;3.93;;;;;;;12.43;20.80;100896.22;5409027;32;34950;-62
2022/04/04 08:06:50;;;;;;;6.67;3.40;;;;;;;10.99;22.05;100905.69;5418885;32;34158;-67
2022/04/04 08:09:52;;;;;;;6.37;3.60;;;;;;;12.33;20.93;100898.34;5408124;32;44268;-68
2022/04/04 08:12:55;;;;;;;9.27;4.50;;;;;;;13.61;19.56;100894.03;5399237;32;35328;-69
2022/04/04 08:15:57;;;;;;;7.27;3.80;;;;;;;11.67;21.62;100891.97;5415427;32;34371;-67
2022/04/04 08:18:59;;;;;;;6.97;3.53;;;;;;;13.35;19.67;100884.59;5414376;32;35210;-68
2022/04/04 08:22:02;;;;;;;5.20;2.90;;;;;;;14.18;18.37;100876.50;5414891;32;34796;-71
2022/04/04 08:25:05;;;;;;;;;;;;;;;12.97;20.05;100887.03;5411807;32;34226;-68
2022/04/04 08:28:07;;;;;;;6.53;3.40;;;;;;;13.09;19.79;100891.78;5427597;32;34321;-60
2022/04/04 08:31:10;;;;;;;5.50;3.00;;;;;;;13.79;18.43;100880.03;5398998;32;35399;-70
2022/04/04 08:34:12;;;;;;;8.00;3.65;;;;;;;13.23;18.57;100892.09;5420873;32;34079;-64
2022/04/04 08:37:15;;;;;;;5.75;3.45;;;;;;;12.48;19.35;100881.91;5408479;32;34142;-69
2022/04/04 08:40:18;;;;;;;8.07;3.42;;;;;;;12.75;19.36;100876.47;5399235;32;35581;-70
2022/04/04 08:43:22;;;;;;;7.43;3.37;;;;;;;13.87;18.63;100869.09;5408858;32;44583;-67
2022/04/04 08:46:24;;;;;;;;;;;;;;;11.59;20.78;100862.41;5411735;32;34447;-67
2022/04/04 08:49:26;;;;;;;6.70;3.20;;;;;;;11.01;20.85;100878.47;5410080;32;35663;-66
2022/04/04 08:52:29;;;;;;;7.20;3.60;;;;;;;10.37;22.42;100869.97;5396319;32;33241;-70
2022/04/04 08:55:32;;;;;;;5.97;3.20;;;;;;;12.54;20.58;100859.72;5415601;32;34661;-70
2022/04/04 08:58:34;;;;;;;6.80;3.25;;;;;;;12.55;20.41;100856.16;5398769;32;35501;-71
2022/04/04 09:01:36;;;;;;;7.23;3.43;;;;;;;13.07;19.77;100848.75;5422649;32;35309;-69
2022/04/04 09:04:40;;;;;;;5.57;2.97;;;;;;;12.92;19.44;100844.13;5414885;32;35373;-73
2022/04/04 09:08:07;;;;;;;11.17;3.70;;;;;;;14.60;18.08;100841.91;5387296;32;34047;-67
2022/04/04 09:11:10;;;;;;;8.03;3.87;;;;;;;11.54;21.59;100845.94;5408096;32;34266;-67
2022/04/04 09:14:13;;;;;;;7.63;3.40;;;;;;;12.13;21.17;100838.50;5388377;32;34174;-69
2022/04/04 09:17:18;;;;;;;7.23;3.97;;;;;;;14.41;18.75;100820.72;5419874;32;35409;-68
2022/04/04 09:20:20;;;;;;;7.27;3.87;;;;;;;13.08;19.90;100821.47;5395482;32;34050;-66
2022/04/04 09:23:22;;;;;;;7.60;3.90;;;;;;;14.33;19.32;100815.81;5409110;32;45044;-62
2022/04/04 09:26:26;;;;;;;7.50;3.67;;;;;;;13.44;19.34;100816.41;5422767;32;34132;-62
2022/04/04 09:29:28;;;;;;;6.87;3.70;;;;;;;14.38;19.04;100810.31;5412120;32;34256;-80
2022/04/04 09:32:44;;;;;;;7.17;4.17;;;;;;;14.33;19.31;100809.66;5395208;32;33926;-78
2022/04/04 09:35:47;;;;;;;10.27;5.17;;;;;;;15.48;19.17;100794.19;5413901;32;37503;-72
2022/04/04 09:39:03;;;;;;;9.13;4.68;;;;;;;15.67;19.66;100797.59;5421217;32;34298;-63
2022/04/04 09:42:16;;;;;;;;;;;;;;;13.41;22.00;100794.56;5425054;32;33964;-69
2022/04/04 09:45:20;;;;;;;15.17;5.97;;;;;;;15.38;20.08;100777.91;5415802;32;34415;-67
2022/04/04 09:48:22;;;;;;;16.07;6.50;;;;;;;15.12;20.72;100768.69;5422603;32;46010;-62
2022/04/04 09:51:37;;;;;;;11.17;5.17;;;;;;;14.68;22.32;100780.66;5412574;32;35090;-61
2022/04/04 09:54:41;;;;;;;11.53;5.60;;;;;;;16.92;20.83;100773.75;5425223;32;35364;-62
2022/04/04 09:57:49;;;;;;;9.87;5.57;;;;;;;14.59;21.72;100780.19;5397089;32;34181;-61
2022/04/04 10:00:54;;;;;;;8.07;4.83;;;;;;;14.85;21.94;100776.25;5410370;32;44636;-63
2022/04/04 10:03:56;;;;;;;10.47;5.63;;;;;;;17.95;18.84;100751.50;5423793;32;35915;-63
2022/04/04 10:07:04;;;;;;;12.07;5.30;;;;;;;19.56;16.42;100745.06;5405512;32;34229;-63
2022/04/04 10:10:06;;;;;;;12.50;5.60;;;;;;;17.35;18.93;100746.41;5413089;32;35635;-67
2022/04/04 10:13:10;;;;;;;8.43;4.97;;;;;;;15.54;20.76;100759.41;5401320;32;34197;-64
2022/04/04 10:16:13;;;;;;;8.07;5.33;;;;;;;16.20;19.85;100747.84;5397328;32;34153;-66
2022/04/04 10:19:15;;;;;;;11.47;5.80;;;;;;;17.03;20.08;100736.78;5411161;32;34170;-64
2022/04/04 10:22:19;;;;;;;8.05;5.05;;;;;;;16.40;19.89;100738.75;5407191;32;36997;-70
2022/04/04 10:25:22;;;;;;;;;;;;;;;13.59;22.80;100745.31;5401922;32;36286;-76
2022/04/04 10:28:35;;;;;;;9.53;5.80;;;;;;;14.56;22.57;100739.84;5411850;32;35540;-77
2022/04/04 10:31:51;;;;;;;10.27;5.87;;;;;;;11.15;26.62;100758.75;5424757;32;35111;-65
2022/04/04 10:34:55;;;;;;;12.33;5.53;;;;;;;13.13;23.95;100735.03;5407171;32;44210;-67
2022/04/04 10:38:03;;;;;;;9.40;5.57;;;;;;;11.97;26.17;100737.22;5396922;32;35365;-64
2022/04/04 10:41:08;;;;;;;12.73;5.47;;;;;;;15.12;22.60;100715.72;5423682;32;35299;-63
2022/04/04 10:44:11;;;;;;;9.40;5.40;;;;;;;15.35;21.03;100705.72;5399158;32;34102;-66
2022/04/04 10:47:23;;;;;;;7.20;4.30;;;;;;;15.14;21.57;100707.72;5423697;32;35433;-69
2022/04/04 10:50:30;;;;;;;8.50;4.80;;;;;;;13.93;22.37;100710.28;5405673;32;44629;-62
2022/04/04 10:53:41;;;;;;;9.00;4.90;;;;;;;15.47;20.83;100699.78;5394958;32;34254;-62
2022/04/04 10:56:47;;;;;;;10.93;5.33;;;;;;;15.31;21.29;100706.81;5404671;32;34554;-61
2022/04/04 10:59:57;;;;;;;10.40;5.07;;;;;;;15.36;20.92;100699.47;5413292;32;34273;-73
2022/04/04 11:03:01;;;;;;;9.60;5.37;;;;;;;11.52;25.75;100705.59;5419044;32;45249;-64
2022/04/04 11:09:31;;;;;;;10.88;5.50;;;;;;;13.29;23.49;100690.38;5409387;32;44229;-65
2022/04/04 11:12:56;;;;;;;8.93;4.53;;;;;;;12.44;23.67;100674.72;5413468;32;35441;-65
2022/04/04 11:16:01;;;;;;;7.53;4.53;;;;;;;11.51;24.82;100680.19;5405325;32;44278;-64
2022/04/04 11:19:10;;;;;;;11.90;6.80;;;;;;;13.12;23.80;100669.12;5420538;32;35722;-64
2022/04/04 11:22:17;;;;;;;8.33;4.67;;;;;;;13.86;22.72;100688.59;5396812;32;35168;-62
2022/04/04 11:25:21;;;;;;;8.10;4.50;;;;;;;11.66;25.39;100680.50;5404344;32;35811;-65
2022/04/04 11:28:31;;;;;;;9.20;4.63;;;;;;;10.69;27.08;100684.97;5408447;32;44587;-66
2022/04/04 11:31:46;;;;;;;10.67;4.63;;;;;;;12.42;25.15;100678.31;5406490;32;34273;-63
2022/04/04 11:34:50;;;;;;;8.83;4.20;;;;;;;13.57;23.98;100675.88;5410649;32;34290;-63
2022/04/04 11:37:57;;;;;;;8.07;4.40;;;;;;;14.27;22.89;100662.75;5403707;32;46205;-62
2022/04/04 11:41:01;;;;;;;7.97;4.20;;;;;;;12.93;24.32;100667.31;5409743;32;33737;-63
2022/04/04 11:44:04;;;;;;;8.63;4.20;;;;;;;14.19;22.58;100658.81;5427940;32;35412;-63
2022/04/04 11:47:08;;;;;;;6.20;3.72;;;;;;;14.29;21.98;100663.53;5408252;32;37429;-62
2022/04/04 11:50:12;;;;;;;7.50;3.67;;;;;;;14.33;22.25;100654.53;5412857;32;35537;-68
2022/04/04 11:53:16;;;;;;;7.87;4.03;;;;;;;14.08;22.29;100659.31;5407398;32;34173;-70
2022/04/04 11:56:23;;;;;;;9.73;3.90;;;;;;;14.80;22.31;100650.41;5399539;32;33362;-65
2022/04/04 11:59:27;;;;;;;8.83;4.20;;;;;;;15.81;20.85;100640.47;5405491;32;45351;-63
2022/04/04 12:02:30;;;;;;;7.63;4.30;;;;;;;15.52;21.19;100639.44;5405918;32;35362;-63
2022/04/04 12:05:33;;;;;;;7.03;4.12;;;;;;;14.80;21.91;100643.31;5412110;32;34059;-60
2022/04/04 12:08:37;;;;;;;8.75;4.72;;;;;;;13.25;24.14;100636.84;5411864;32;35514;-66
2022/04/04 12:11:39;;;;;;;9.23;4.53;;;;;;;9.31;30.04;100650.87;5427577;32;34071;-70
2022/04/04 12:14:43;;;;;;;9.60;4.93;;;;;;;11.97;26.73;100639.78;5411351;32;34171;-67
2022/04/04 12:17:48;;;;;;;9.93;4.30;;;;;;;14.05;23.73;100631.28;5415744;32;34255;-70
2022/04/04 12:20:53;;;;;;;10.33;4.63;;;;;;;15.54;21.37;100613.72;5419445;32;35739;-72
2022/04/04 12:27:19;;;;;;;8.00;4.32;;;;;;;16.60;20.62;100600.47;5414891;32;32839;-62
2022/04/04 12:30:29;;;;;;;10.60;5.07;;;;;;;17.01;20.16;100595.31;5412873;32;37366;-65
2022/04/04 12:33:32;;;;;;;10.47;4.97;;;;;;;17.83;19.65;100589.16;5412809;32;34009;-62
2022/04/04 12:36:40;;;;;;;9.32;5.12;;;;;;;17.24;20.64;100585.87;5412513;32;35514;-65
2022/04/04 12:39:42;;;;;;;7.57;4.53;;;;;;;18.03;20.08;100571.00;5410247;32;34191;-61
2022/04/04 12:42:45;;;;;;;9.02;5.10;;;;;;;18.54;19.29;100563.94;5407091;32;34912;-64
2022/04/04 12:45:47;;;;;;;;;;;;;;;18.00;19.83;100558.78;5388377;32;34235;-63
2022/04/04 12:48:50;;;;;;;16.47;5.30;;;;;;;18.40;19.54;100558.72;5423494;32;34179;-66
2022/04/04 12:51:55;;;;;;;12.55;5.70;;;;;;;17.85;20.75;100550.03;5413319;32;44575;-64
2022/04/04 12:55:11;;;;;;;16.77;5.00;;;;;;;16.47;21.38;100543.78;5408486;32;34135;-64
2022/04/04 12:58:26;;;;;;;8.77;4.90;;;;;;;16.45;21.48;100538.59;5405642;32;34006;-63
2022/04/04 13:01:28;;;;;;;10.63;5.33;;;;;;;15.26;23.34;100544.69;5414791;32;44292;-63
2022/04/04 13:04:32;;;;;;;11.95;6.12;;;;;;;12.57;26.76;100558.19;5401654;32;34079;-70
2022/04/04 13:07:34;;;;;;;;;;;;;;;11.21;29.32;100554.19;5414023;32;34258;-64
2022/04/04 13:10:37;;;;;;;8.83;4.93;;;;;;;12.85;27.21;100552.50;5421291;32;34525;-62
2022/04/04 13:14:05;;;;;;;13.00;5.33;;;;;;;13.45;26.02;100540.88;5404377;32;34060;-68
2022/04/04 13:17:07;;;;;;;9.05;5.10;;;;;;;12.38;27.46;100545.81;5410005;32;34137;-61
2022/04/04 13:20:14;;;;;;;9.87;5.40;;;;;;;11.96;28.34;100535.34;5425558;32;34065;-61
2022/04/04 13:23:17;;;;;;;11.90;5.27;;;;;;;12.10;28.44;100532.97;5401239;32;35117;-63
2022/04/04 13:26:20;;;;;;;12.02;5.78;;;;;;;11.93;28.61;100531.06;5426724;32;35792;-64
2022/04/04 13:29:22;;;;;;;10.97;5.57;;;;;;;11.29;29.85;100530.19;5414958;32;44323;-74
2022/04/04 13:32:24;;;;;;;10.03;5.33;;;;;;;10.88;30.74;100526.50;5414972;32;35802;-72
2022/04/04 13:35:26;;;;;;;10.60;4.53;;;;;;;11.49;29.97;100524.97;5426421;32;34213;-76
2022/04/04 13:38:28;;;;;;;11.77;5.20;;;;;;;10.56;32.02;100525.94;5414030;32;35210;-78
2022/04/04 13:41:33;;;;;;;8.33;4.27;;;;;;;11.01;30.65;100517.25;5424751;32;34157;-66
2022/04/04 13:44:36;;;;;;;9.47;4.83;;;;;;;10.84;30.74;100515.28;5402287;32;34182;-73
2022/04/04 13:47:39;;;;;;;10.70;5.20;;;;;;;10.37;31.65;100511.75;5370420;32;33958;-65
2022/04/04 13:50:41;;;;;;;9.38;4.80;;;;;;;9.40;33.18;100498.44;5375812;32;34175;-65
2022/04/04 13:53:44;;;;;;;9.03;4.70;;;;;;;10.63;31.30;100501.19;5354652;32;33986;-65
2022/04/04 13:56:47;;;;;;;9.80;4.57;;;;;;;10.81;31.08;100499.59;5360874;32;34229;-67
2022/04/04 13:59:53;;;;;;;11.97;5.53;;;;;;;10.38;31.90;100495.97;5365296;32;46082;-71
2022/04/04 14:02:55;;;;;;;11.27;5.40;;;;;;;9.67;33.10;100487.06;5381869;32;34308;-68
2022/04/04 14:05:59;;;;;;;15.33;5.83;;;;;;;9.32;34.48;100493.44;5365437;32;33905;-65
2022/04/04 14:09:02;;;;;;;11.07;5.53;;;;;;;9.58;34.38;100479.47;5367872;32;34297;-69
2022/04/04 14:12:04;;;;;;;11.10;5.70;;;;;;;10.69;32.28;100465.88;5375859;32;34272;-61
2022/04/04 14:15:09;;;;;;;10.47;5.63;;;;;;;10.38;32.81;100469.69;5376040;32;35161;-62
2022/04/04 14:18:11;;;;;;;11.33;5.83;;;;;;;10.13;33.80;100467.06;5366243;32;33954;-61
2022/04/04 14:21:17;;;;;;;10.53;5.50;;;;;;;10.10;33.84;100467.16;5366202;32;35442;-61
2022/04/04 14:24:19;;;;;;;10.27;6.03;;;;;;;9.30;35.35;100461.16;5390310;32;35340;-74
2022/04/04 14:27:22;;;;;;;13.00;6.60;;;;;;;9.15;35.76;100452.03;5409413;32;45486;-75
2022/04/04 14:30:25;;;;;;;11.45;5.78;;;;;;;8.36;38.12;100457.06;5417927;32;34051;-64
2022/04/04 14:33:29;;;;;;;15.47;6.70;;;;;;;9.68;35.66;100451.16;5421733;32;37194;-63